createdAt,value
2019-04-14T00:04:03.050Z,5.01
2019-04-14T00:09:16.113Z,5.11
2019-04-14T00:14:19.239Z,4.90
2019-04-14T00:19:21.927Z,4.95
2019-04-14T00:24:24.981Z,5.02
2019-04-14T00:29:28.443Z,5.11
2019-04-14T00:34:59.550Z,5.01
2019-04-14T00:40:21.308Z,4.99
2019-04-14T00:45:43.482Z,4.68
2019-04-14T00:50:38.993Z,4.74
2019-04-14T00:55:42.212Z,4.82
2019-04-14T01:00:45.205Z,4.80
2019-04-14T01:05:48.208Z,4.98
2019-04-14T01:10:51.954Z,5.08
2019-04-14T01:16:00.571Z,4.87
2019-04-14T01:21:00.294Z,5.17
2019-04-14T01:26:03.164Z,5.21
2019-04-14T01:31:05.858Z,5.09
2019-04-14T01:36:08.550Z,4.95
2019-04-14T01:41:11.259Z,4.98
2019-04-14T01:46:19.675Z,5.01
2019-04-14T01:51:35.269Z,4.96
2019-04-14T01:56:47.204Z,4.90
2019-04-14T02:01:52.071Z,4.82
2019-04-14T02:06:55.243Z,4.75
2019-04-14T02:11:58.095Z,4.65
2019-04-14T02:17:02.577Z,4.66
2019-04-14T02:22:05.370Z,4.61
2019-04-14T02:27:08.072Z,4.60
2019-04-14T02:37:43.335Z,4.69
2019-04-14T02:42:46.602Z,4.64
2019-04-14T02:53:01.566Z,4.45
2019-04-14T02:58:01.203Z,4.29
2019-04-14T03:03:12.890Z,4.14
2019-04-14T03:08:08.303Z,4.14
2019-04-14T03:13:30.771Z,4.08
2019-04-14T03:23:43.843Z,3.92
2019-04-14T03:38:58.892Z,3.91
2019-04-14T03:43:54.342Z,3.87
2019-04-14T03:49:10.002Z,3.87
2019-04-14T03:54:03.095Z,3.84
2019-04-14T03:58:46.895Z,3.76
2019-04-14T04:03:49.976Z,3.77
2019-04-14T04:08:53.534Z,3.69
2019-04-14T04:13:56.419Z,3.75
2019-04-14T04:19:12.983Z,3.73
2019-04-14T04:24:33.480Z,3.75
2019-04-14T04:29:50.645Z,3.74
2019-04-14T04:35:15.505Z,3.57
2019-04-14T04:40:26.929Z,3.46
2019-04-14T04:45:29.988Z,3.62
2019-04-14T04:50:34.545Z,3.61
2019-04-14T04:55:37.450Z,3.63
2019-04-14T05:00:40.136Z,3.68
2019-04-14T05:06:11.332Z,3.75
2019-04-14T05:11:20.687Z,3.82
2019-04-14T05:16:23.888Z,3.83
2019-04-14T05:21:27.690Z,3.95
2019-04-14T05:26:30.903Z,4.06
2019-04-14T05:31:33.797Z,4.22
2019-04-14T05:36:36.815Z,4.32
2019-04-14T05:41:43.470Z,3.98
2019-04-14T05:46:44.687Z,4.47
2019-04-14T05:51:48.141Z,4.57
2019-04-14T05:56:51.609Z,4.53
2019-04-14T06:01:54.571Z,4.74
2019-04-14T06:06:57.366Z,4.84
2019-04-14T06:12:00.161Z,4.98
2019-04-14T06:17:02.984Z,4.88
2019-04-14T06:22:05.695Z,5.03
2019-04-14T06:27:08.883Z,5.07
2019-04-14T06:32:37.317Z,5.10
2019-04-14T06:37:48.594Z,5.34
2019-04-14T06:42:51.313Z,5.60
2019-04-14T06:47:54.026Z,5.79
2019-04-14T06:52:56.827Z,5.79
2019-04-14T06:57:59.530Z,5.95
2019-04-14T07:03:02.238Z,5.91
2019-04-14T07:08:04.936Z,5.91
2019-04-14T07:13:07.636Z,6.06
2019-04-14T07:18:12.091Z,6.17
2019-04-14T07:23:14.938Z,6.34
2019-04-14T07:28:17.673Z,6.58
2019-04-14T07:33:45.803Z,6.68
2019-04-14T07:38:53.053Z,7.02
2019-04-14T07:44:07.878Z,6.95
2019-04-14T07:49:21.422Z,7.07
2019-04-14T07:54:42.076Z,7.02
2019-04-14T07:59:50.689Z,7.22
2019-04-14T08:05:04.978Z,7.50
2019-04-14T08:10:09.024Z,7.81
2019-04-14T08:15:14.317Z,8.04
2019-04-14T08:20:26.772Z,8.35
2019-04-14T08:25:21.633Z,8.60
2019-04-14T08:30:24.322Z,8.58
2019-04-14T08:35:27.018Z,8.93
2019-04-14T08:40:29.714Z,8.88
2019-04-14T08:45:43.485Z,9.20
2019-04-14T08:51:11.717Z,9.26
2019-04-14T08:56:28.856Z,9.24
2019-04-14T09:02:09.424Z,9.50
2019-04-14T09:07:17.325Z,9.20
2019-04-14T09:12:23.750Z,9.36
2019-04-14T09:17:28.008Z,9.05
2019-04-14T09:22:30.709Z,9.31
2019-04-14T09:27:33.471Z,9.67
2019-04-14T09:32:36.172Z,9.80
2019-04-14T09:37:38.988Z,10.13
2019-04-14T09:42:41.688Z,9.68
2019-04-14T09:47:44.374Z,9.78
2019-04-14T09:52:47.093Z,10.82
2019-04-14T09:57:49.787Z,10.72
2019-04-14T10:02:52.587Z,10.83
2019-04-14T10:07:55.338Z,11.30
2019-04-14T10:12:58.135Z,11.49
2019-04-14T10:18:00.834Z,11.30
2019-04-14T10:23:03.564Z,11.54
2019-04-14T10:28:06.245Z,11.34
2019-04-14T10:33:08.951Z,11.71
2019-04-14T10:38:11.649Z,11.17
2019-04-14T10:43:14.399Z,10.99
2019-04-14T10:48:17.111Z,11.10
2019-04-14T10:53:19.922Z,11.65
2019-04-14T10:58:22.623Z,12.02
2019-04-14T11:03:25.332Z,11.68
2019-04-14T11:08:28.126Z,11.82
2019-04-14T11:13:30.829Z,12.08
2019-04-14T11:18:33.572Z,12.21
2019-04-14T11:23:36.252Z,12.06
2019-04-14T11:28:38.964Z,12.44
2019-04-14T11:34:02.196Z,12.20
2019-04-14T11:39:08.631Z,12.18
2019-04-14T11:44:11.517Z,12.18
2019-04-14T11:49:14.343Z,12.18
2019-04-14T11:54:17.207Z,11.79
2019-04-14T11:59:27.539Z,11.95
2019-04-14T12:04:39.857Z,12.54
2019-04-14T12:09:49.652Z,11.94
2019-04-14T12:14:52.410Z,11.92
2019-04-14T12:19:55.120Z,11.99
2019-04-14T12:30:11.115Z,11.66
2019-04-14T12:35:14.461Z,11.44
2019-04-14T12:40:17.575Z,11.29
2019-04-14T12:45:38.461Z,11.34
2019-04-14T12:50:46.326Z,10.92
2019-04-14T12:55:49.066Z,11.30
2019-04-14T13:00:58.963Z,11.45
2019-04-14T13:06:01.674Z,11.37
2019-04-14T13:11:04.972Z,11.40
2019-04-14T13:16:07.832Z,11.04
2019-04-14T13:21:11.068Z,10.77
2019-04-14T13:26:13.815Z,10.99
2019-04-14T13:31:16.544Z,11.02
2019-04-14T13:36:20.279Z,10.82
2019-04-14T13:41:23.038Z,10.81
2019-04-14T13:46:25.766Z,10.37
2019-04-14T13:51:28.474Z,9.87
2019-04-14T13:56:31.192Z,9.65
2019-04-14T14:01:33.921Z,9.82
2019-04-14T14:06:36.620Z,9.95
2019-04-14T14:11:50.484Z,9.91
2019-04-14T14:17:11.180Z,9.91
2019-04-14T14:22:18.514Z,9.59
2019-04-14T14:27:21.236Z,9.80
2019-04-14T14:32:29.909Z,9.82
2019-04-14T14:37:32.613Z,9.99
2019-04-14T14:42:35.352Z,9.90
2019-04-14T14:47:38.174Z,9.74
2019-04-14T14:52:40.958Z,9.72
2019-04-14T14:57:43.678Z,9.67
2019-04-14T15:02:46.507Z,9.41
2019-04-14T15:07:49.245Z,9.11
2019-04-14T15:12:51.984Z,9.12
2019-04-14T15:17:54.851Z,8.94
2019-04-14T15:22:57.567Z,9.05
2019-04-14T15:28:00.367Z,9.22
2019-04-14T15:33:03.063Z,9.07
2019-04-14T15:38:05.758Z,8.83
2019-04-14T15:43:08.586Z,8.39
2019-04-14T15:48:11.435Z,8.39
2019-04-14T15:53:14.168Z,8.46
2019-04-14T15:58:26.314Z,8.24
2019-04-14T16:03:34.855Z,8.16
2019-04-14T16:08:57.159Z,8.36
2019-04-14T16:14:37.441Z,8.26
2019-04-14T16:19:53.672Z,8.29
2019-04-14T16:24:56.410Z,8.36
2019-04-14T16:30:15.959Z,8.38
2019-04-14T16:35:21.505Z,8.01
2019-04-14T16:40:24.210Z,7.96
2019-04-14T16:45:27.329Z,7.99
2019-04-14T16:50:30.133Z,8.22
2019-04-14T16:55:49.430Z,8.21
2019-04-14T17:00:57.567Z,8.53
2019-04-14T17:06:00.286Z,8.45
2019-04-14T17:11:03.084Z,8.41
2019-04-14T17:16:24.013Z,8.37
2019-04-14T17:21:46.376Z,8.17
2019-04-14T17:26:56.210Z,8.24
2019-04-14T17:32:24.276Z,8.21
2019-04-14T17:37:46.639Z,8.41
2019-04-14T17:43:09.000Z,8.33
2019-04-14T17:48:31.316Z,8.62
2019-04-14T17:53:53.692Z,8.65
2019-04-14T17:59:11.185Z,8.68
2019-04-14T18:04:26.560Z,8.63
2019-04-14T18:09:44.074Z,8.72
2019-04-14T18:14:53.146Z,8.77
2019-04-14T18:20:00.238Z,8.80
2019-04-14T18:25:03.984Z,8.90
2019-04-14T18:30:32.121Z,8.81
2019-04-14T18:36:09.651Z,8.76
2019-04-14T18:41:19.942Z,8.82
2019-04-14T18:46:51.303Z,8.93
2019-04-14T18:52:22.672Z,9.06
2019-04-14T18:57:41.308Z,9.04
2019-04-14T19:02:44.021Z,9.04
2019-04-14T19:07:46.747Z,9.12
2019-04-14T19:12:58.107Z,9.18
2019-04-14T19:18:16.194Z,9.10
2019-04-14T19:23:18.941Z,9.20
2019-04-14T19:28:21.668Z,9.23
2019-04-14T19:33:24.355Z,9.36
2019-04-14T19:38:27.052Z,9.28
2019-04-14T19:43:29.815Z,9.23
2019-04-14T19:48:32.538Z,9.22
2019-04-14T19:53:35.305Z,9.25
2019-04-14T19:58:38.037Z,9.33
2019-04-14T20:03:40.827Z,9.40
2019-04-14T20:08:43.636Z,9.25
2019-04-14T20:13:46.566Z,9.22
2019-04-14T20:19:20.710Z,8.98
2019-04-14T20:24:39.881Z,8.96
2019-04-14T20:29:47.268Z,8.83
2019-04-14T20:34:50.406Z,8.61
2019-04-14T20:39:53.126Z,8.62
2019-04-14T20:44:55.981Z,8.73
2019-04-14T20:49:58.743Z,8.70
2019-04-14T20:55:01.580Z,8.89
2019-04-14T21:00:04.862Z,8.86
2019-04-14T21:05:36.356Z,9.07
2019-04-14T21:11:01.324Z,8.98
2019-04-14T21:16:12.748Z,8.94
2019-04-14T21:21:50.008Z,9.16
2019-04-14T21:27:12.385Z,9.26
2019-04-14T21:32:21.708Z,9.01
2019-04-14T21:37:41.230Z,8.96
2019-04-14T21:42:44.104Z,8.98
2019-04-14T21:47:46.920Z,8.99
2019-04-14T21:52:50.126Z,8.88
2019-04-14T21:58:06.189Z,9.02
2019-04-14T22:03:37.440Z,9.07
2019-04-14T22:08:44.892Z,8.96
2019-04-14T22:13:50.665Z,9.08
2019-04-14T22:18:52.531Z,9.32
2019-04-14T22:24:01.702Z,9.41
2019-04-14T22:29:02.447Z,9.50
2019-04-14T22:34:04.491Z,9.51
2019-04-14T22:39:09.419Z,9.50
2019-04-14T22:44:12.131Z,9.53
2019-04-14T22:49:14.853Z,9.53
2019-04-14T22:54:17.548Z,9.42
2019-04-14T22:59:20.267Z,9.36
2019-04-14T23:04:47.323Z,9.35
2019-04-14T23:16:31.484Z,9.15
2019-04-14T23:21:55.507Z,8.93
2019-04-14T23:26:58.780Z,9.03
2019-04-14T23:32:01.552Z,9.01
2019-04-14T23:37:04.310Z,9.06
2019-04-14T23:42:07.200Z,9.07
2019-04-14T23:47:09.897Z,9.04
2019-04-14T23:52:12.606Z,9.22
2019-04-14T23:57:15.295Z,9.18
